Time;durP1;ratioP1;P1;durP2;ratioP2;P2;SDS_P1;SDS_P2;PMS_P1;PMS_P2;Temp;Humidity;BMP_temperature;BMP_pressure;BME280_temperature;BME280_humidity;BME280_pressure;Samples;Min_cycle;Max_cycle;Signal;HPM_P1;HPM_P2
2022/06/28 00:00:24;;;;;;;8.70;5.93;;;23.70;99.90;;;;;;5011507;28;20532;-75
2022/06/28 00:02:49;;;;;;;7.88;7.10;;;23.90;99.90;;;;;;5014029;28;20274;-75
2022/06/28 00:05:15;;;;;;;6.90;6.30;;;23.90;99.90;;;;;;5044826;23;20264;-74
2022/06/28 00:07:41;;;;;;;7.70;6.82;;;23.80;99.90;;;;;;5053023;28;20277;-74
2022/06/28 00:10:10;;;;;;;6.90;6.30;;;23.80;99.90;;;;;;5053119;28;20207;-74
2022/06/28 00:12:36;;;;;;;8.18;6.78;;;23.80;99.90;;;;;;5053852;28;20184;-74
2022/06/28 00:17:50;;;;;;;8.90;7.22;;;23.40;99.90;;;;;;5053328;28;20226;-74
2022/06/28 00:20:16;;;;;;;8.38;7.20;;;23.30;99.90;;;;;;5053029;28;20216;-75
2022/06/28 00:22:42;;;;;;;8.57;7.68;;;23.30;99.90;;;;;;5053335;28;20204;-75
2022/06/28 00:25:08;;;;;;;9.35;8.45;;;23.40;99.90;;;;;;5053290;28;20256;-74
2022/06/28 00:27:34;;;;;;;8.65;7.85;;;23.30;99.90;;;;;;5053552;28;20283;-74
2022/06/28 00:30:00;;;;;;;11.95;9.48;;;23.30;99.90;;;;;;5049081;28;20214;-74
2022/06/28 00:32:26;;;;;;;10.18;8.25;;;23.20;99.90;;;;;;5052399;28;20212;-74
2022/06/28 00:34:52;;;;;;;10.18;9.27;;;23.20;99.90;;;;;;5052886;28;20235;-74
2022/06/28 00:37:17;;;;;;;9.82;9.02;;;23.00;99.90;;;;;;5052878;28;20235;-74
2022/06/28 00:39:43;;;;;;;9.43;8.63;;;23.10;99.90;;;;;;5053062;28;20273;-75
2022/06/28 00:42:09;;;;;;;10.30;9.18;;;22.90;99.90;;;;;;5052875;28;20224;-75
2022/06/28 00:44:36;;;;;;;11.73;10.02;;;22.90;99.90;;;;;;5034676;28;20218;-74
2022/06/28 00:47:02;;;;;;;9.98;9.07;;;22.90;99.90;;;;;;5052798;28;20216;-74
2022/06/28 00:49:29;;;;;;;9.73;8.70;;;22.90;99.90;;;;;;5052305;28;20223;-74
2022/06/28 00:51:57;;;;;;;10.35;9.25;;;22.80;99.90;;;;;;5052600;28;20199;-75
2022/06/28 00:54:23;;;;;;;9.93;9.02;;;22.70;99.90;;;;;;5053078;28;20260;-74
2022/06/28 00:56:49;;;;;;;9.90;9.00;;;22.80;99.90;;;;;;5052586;28;20212;-74
2022/06/28 00:59:14;;;;;;;11.27;9.60;;;22.60;99.90;;;;;;5048007;28;20294;-74
2022/06/28 01:01:40;;;;;;;10.20;9.20;;;22.60;99.90;;;;;;5049845;28;20206;-74
2022/06/28 01:04:06;;;;;;;9.38;8.57;;;22.60;99.90;;;;;;5049602;28;20231;-74
2022/06/28 01:06:32;;;;;;;9.98;8.48;;;22.60;99.90;;;;;;5051844;28;20187;-75
2022/06/28 01:08:57;;;;;;;9.98;8.38;;;22.50;99.90;;;;;;5052067;28;20243;-74
2022/06/28 01:11:23;;;;;;;10.48;9.25;;;22.60;99.90;;;;;;5052149;28;20250;-75
2022/06/28 01:14:03;;;;;;;9.95;8.45;;;22.60;99.90;;;;;;5034438;28;20218;-75
2022/06/28 01:16:30;;;;;;;10.23;8.98;;;22.50;99.90;;;;;;5053317;28;20750;-74
2022/06/28 01:18:55;;;;;;;9.75;8.77;;;22.30;99.90;;;;;;5058883;28;20211;-74
2022/06/28 01:21:25;;;;;;;13.57;12.18;;;22.20;99.90;;;;;;5052532;28;20195;-74
2022/06/28 01:23:50;;;;;;;12.68;10.18;;;22.30;99.90;;;;;;5052226;28;20711;-75
2022/06/28 01:26:19;;;;;;;10.38;9.38;;;22.30;99.90;;;;;;5052182;28;20290;-75
2022/06/28 01:28:45;;;;;;;9.95;9.00;;;22.30;99.90;;;;;;5030795;28;20202;-74
2022/06/28 01:31:12;;;;;;;10.25;9.25;;;22.40;99.90;;;;;;5052102;28;20291;-75
2022/06/28 01:33:39;;;;;;;9.38;8.43;;;22.30;99.90;;;;;;5052430;28;20183;-74
2022/06/28 01:36:08;;;;;;;10.30;9.20;;;22.40;99.90;;;;;;5051912;28;20718;-75
2022/06/28 01:38:35;;;;;;;11.85;9.05;;;22.50;99.90;;;;;;5051356;28;20268;-74
2022/06/28 01:41:01;;;;;;;12.95;10.65;;;22.40;99.90;;;;;;5051945;28;20215;-75
2022/06/28 01:43:27;;;;;;;9.07;8.27;;;22.50;99.90;;;;;;5051349;28;20208;-75
2022/06/28 01:45:54;;;;;;;9.25;8.35;;;22.10;99.90;;;;;;5033629;28;20204;-74
2022/06/28 01:48:20;;;;;;;9.00;8.15;;;22.00;99.90;;;;;;5052017;28;20568;-73
2022/06/28 01:50:47;;;;;;;9.55;8.52;;;22.10;99.90;;;;;;5033814;28;20211;-74
2022/06/28 01:53:12;;;;;;;10.27;8.35;;;22.20;99.90;;;;;;5033831;28;20207;-74
2022/06/28 01:55:38;;;;;;;11.25;9.65;;;22.30;99.90;;;;;;5059448;28;20691;-74
2022/06/28 01:58:04;;;;;;;8.88;8.05;;;22.30;99.90;;;;;;5050291;28;20597;-74
2022/06/28 02:00:30;;;;;;;9.32;8.45;;;22.40;99.90;;;;;;5049644;28;20576;-74
2022/06/28 02:02:56;;;;;;;10.07;9.07;;;22.40;99.90;;;;;;5051434;28;20257;-73
2022/06/28 02:05:22;;;;;;;11.45;8.77;;;22.10;99.90;;;;;;5051033;28;20265;-73
2022/06/28 02:07:49;;;;;;;10.75;9.65;;;21.90;99.90;;;;;;5033297;28;20212;-73
2022/06/28 02:10:16;;;;;;;10.90;9.20;;;22.00;99.90;;;;;;5051081;28;20632;-73
2022/06/28 02:12:41;;;;;;;10.57;9.43;;;21.80;99.90;;;;;;5051461;28;20176;-73
2022/06/28 02:15:07;;;;;;;11.38;9.50;;;21.90;99.90;;;;;;5051041;28;20303;-74
2022/06/28 02:17:33;;;;;;;12.65;10.07;;;21.90;99.90;;;;;;5032963;28;20219;-73
2022/06/28 02:19:59;;;;;;;9.30;8.40;;;21.90;99.90;;;;;;5050730;28;20238;-73
2022/06/28 02:22:24;;;;;;;10.52;8.93;;;22.00;99.90;;;;;;5033082;28;20681;-73
2022/06/28 02:24:51;;;;;;;12.43;9.02;;;21.90;99.90;;;;;;5051047;28;20204;-74
2022/06/28 02:27:17;;;;;;;11.38;10.02;;;22.00;99.90;;;;;;5051556;28;20170;-74
2022/06/28 02:29:43;;;;;;;10.32;9.32;;;22.20;99.90;;;;;;5029227;28;20208;-74
2022/06/28 02:32:08;;;;;;;10.95;9.65;;;22.10;99.90;;;;;;5040334;28;20366;-74
2022/06/28 02:40:21;;;;;;;11.48;10.27;;;22.10;99.90;;;;;;5051223;28;20253;-74
2022/06/28 02:43:05;;;;;;;10.13;9.13;;;22.20;99.90;;;;;;5037972;28;20465;-74
2022/06/28 02:45:32;;;;;;;10.32;9.10;;;22.10;99.90;;;;;;5050868;28;20260;-74
2022/06/28 02:47:58;;;;;;;9.20;8.40;;;22.10;99.90;;;;;;5050442;28;20218;-73
2022/06/28 02:50:24;;;;;;;8.35;7.55;;;22.10;99.90;;;;;;5050190;28;20211;-73
2022/06/28 02:52:50;;;;;;;9.85;8.85;;;22.10;99.90;;;;;;5050536;28;20299;-73
2022/06/28 02:55:16;;;;;;;9.02;8.13;;;22.00;99.90;;;;;;5049779;28;20589;-74
2022/06/28 02:57:42;;;;;;;7.38;6.78;;;22.10;99.90;;;;;;5050560;28;20418;-73
2022/06/28 03:00:11;;;;;;;7.35;6.65;;;21.90;99.90;;;;;;5050196;28;20207;-74
2022/06/28 03:02:38;;;;;;;7.18;6.47;;;21.80;99.90;;;;;;5050231;28;20209;-74
2022/06/28 03:05:05;;;;;;;5.85;5.22;;;21.60;99.90;;;;;;5050160;28;20215;-74
2022/06/28 03:07:31;;;;;;;6.60;5.57;;;21.60;99.90;;;;;;5050290;28;20268;-74
2022/06/28 03:09:56;;;;;;;6.60;6.00;;;21.50;99.90;;;;;;5050578;28;20168;-73
2022/06/28 03:12:22;;;;;;;7.30;6.63;;;21.40;99.90;;;;;;5049024;28;20267;-73
2022/06/28 03:14:48;;;;;;;6.53;5.80;;;21.40;99.90;;;;;;5050413;28;20216;-74
2022/06/28 03:17:13;;;;;;;6.38;5.78;;;21.30;99.90;;;;;;5050282;28;20222;-74
2022/06/28 03:19:39;;;;;;;7.43;5.90;;;21.50;99.90;;;;;;5049905;28;20214;-74
2022/06/28 03:22:04;;;;;;;6.40;5.80;;;21.60;99.90;;;;;;5032343;28;20648;-74
2022/06/28 03:24:30;;;;;;;6.65;5.85;;;21.70;99.90;;;;;;5032555;28;20235;-73
2022/06/28 03:26:55;;;;;;;6.38;5.78;;;21.60;99.90;;;;;;5050134;28;20314;-74
2022/06/28 03:29:21;;;;;;;6.60;6.00;;;21.70;99.90;;;;;;5031863;28;20753;-73
2022/06/28 03:31:47;;;;;;;6.25;5.55;;;21.70;99.90;;;;;;5032454;28;20561;-74
2022/06/28 03:34:13;;;;;;;6.80;5.30;;;21.80;99.90;;;;;;5032307;28;20265;-74
2022/06/28 03:36:38;;;;;;;5.53;4.85;;;21.80;99.90;;;;;;5050555;28;20199;-74
2022/06/28 03:39:04;;;;;;;7.65;6.95;;;21.80;99.90;;;;;;5049994;28;20261;-74
2022/06/28 03:41:29;;;;;;;7.32;6.60;;;21.70;99.90;;;;;;5031926;28;20278;-74
2022/06/28 03:43:55;;;;;;;5.07;4.43;;;21.70;99.90;;;;;;5048636;28;20234;-74
2022/06/28 03:46:21;;;;;;;6.75;4.75;;;21.70;99.90;;;;;;5032105;28;20632;-73
2022/06/28 03:48:47;;;;;;;5.55;4.80;;;21.80;99.90;;;;;;5049949;28;20203;-73
2022/06/28 03:51:14;;;;;;;5.55;4.57;;;21.60;99.90;;;;;;5050563;28;20183;-74
2022/06/28 03:53:40;;;;;;;6.65;4.90;;;21.40;99.90;;;;;;5049898;28;20207;-73
2022/06/28 03:56:06;;;;;;;6.35;4.13;;;21.50;99.90;;;;;;5050045;28;20589;-74
2022/06/28 03:58:32;;;;;;;4.22;3.83;;;21.40;99.90;;;;;;5049483;28;20722;-74
2022/06/28 04:00:57;;;;;;;5.53;4.93;;;21.40;99.90;;;;;;5050122;28;20204;-74
2022/06/28 04:03:23;;;;;;;5.18;4.50;;;21.30;99.90;;;;;;5050152;28;20180;-74
2022/06/28 04:05:49;;;;;;;5.05;4.13;;;21.40;99.90;;;;;;5051658;28;20227;-74
2022/06/28 04:08:14;;;;;;;4.28;3.88;;;21.40;99.90;;;;;;5053156;28;20226;-74
2022/06/28 04:10:40;;;;;;;5.00;4.18;;;21.50;99.90;;;;;;5053454;28;22012;-74
2022/06/28 04:13:06;;;;;;;4.65;4.10;;;21.50;99.90;;;;;;5052036;28;20212;-74
2022/06/28 04:15:31;;;;;;;4.43;3.80;;;21.40;99.90;;;;;;5035703;28;20242;-74
2022/06/28 04:17:57;;;;;;;6.88;4.28;;;21.40;99.90;;;;;;5035320;28;20294;-74
2022/06/28 04:20:23;;;;;;;5.32;4.13;;;21.30;99.90;;;;;;5053083;28;20204;-74
2022/06/28 04:22:49;;;;;;;4.72;3.92;;;21.40;99.90;;;;;;5053254;28;20214;-74
2022/06/28 04:25:14;;;;;;;4.28;3.88;;;21.40;99.90;;;;;;5052968;28;20208;-74
2022/06/28 04:27:40;;;;;;;5.55;4.18;;;21.50;99.90;;;;;;5053523;28;20301;-75
2022/06/28 04:30:07;;;;;;;4.55;4.15;;;21.40;99.90;;;;;;5053170;28;20299;-74
2022/06/28 04:32:32;;;;;;;3.92;3.55;;;21.40;99.90;;;;;;5034768;28;20214;-74
2022/06/28 04:34:59;;;;;;;4.75;4.25;;;21.50;99.90;;;;;;5053095;28;20204;-75
2022/06/28 04:37:24;;;;;;;5.10;4.28;;;21.30;99.90;;;;;;5052675;28;20735;-74
2022/06/28 04:39:50;;;;;;;6.63;4.30;;;21.20;99.90;;;;;;5052577;28;20188;-75
2022/06/28 04:42:15;;;;;;;4.95;4.43;;;21.20;99.90;;;;;;5034020;28;20270;-74
2022/06/28 04:44:44;;;;;;;4.00;3.70;;;21.10;99.90;;;;;;5052621;28;20211;-74
2022/06/28 04:47:10;;;;;;;5.22;4.72;;;21.00;99.90;;;;;;5052878;28;20218;-74
2022/06/28 04:49:36;;;;;;;7.40;4.80;;;20.80;99.90;;;;;;5052041;28;20207;-74
2022/06/28 04:52:02;;;;;;;5.80;5.20;;;20.80;99.90;;;;;;5049932;28;20191;-74
2022/06/28 04:54:28;;;;;;;5.53;5.03;;;20.80;99.90;;;;;;5035196;28;20200;-74
2022/06/28 04:56:53;;;;;;;5.95;4.72;;;20.90;99.90;;;;;;5052575;28;20219;-74
2022/06/28 04:59:19;;;;;;;5.80;5.13;;;21.00;99.90;;;;;;5052523;28;20215;-76
2022/06/28 05:01:45;;;;;;;5.55;5.05;;;21.00;99.90;;;;;;5052564;28;20298;-74
2022/06/28 05:04:10;;;;;;;5.30;4.38;;;21.00;99.90;;;;;;5052835;28;20223;-73
2022/06/28 05:06:36;;;;;;;5.22;4.78;;;20.80;99.90;;;;;;5053062;28;20183;-74
2022/06/28 05:09:02;;;;;;;5.43;4.93;;;20.90;99.90;;;;;;5052317;28;20613;-74
2022/06/28 05:11:29;;;;;;;5.18;4.70;;;20.90;99.90;;;;;;5052178;28;20718;-74
2022/06/28 05:13:55;;;;;;;6.10;4.93;;;20.90;99.90;;;;;;5052245;28;20715;-74
2022/06/28 05:16:20;;;;;;;6.13;5.50;;;20.90;99.90;;;;;;5051805;28;20245;-74
2022/06/28 05:18:46;;;;;;;6.68;4.53;;;20.70;99.90;;;;;;5033986;28;20172;-74
2022/06/28 05:21:12;;;;;;;5.07;4.57;;;20.70;99.90;;;;;;5051255;28;20191;-74
2022/06/28 05:23:38;;;;;;;5.75;5.10;;;20.70;99.90;;;;;;5034203;28;20215;-74
2022/06/28 05:26:03;;;;;;;4.80;4.38;;;20.70;99.90;;;;;;5052480;28;20216;-74
2022/06/28 05:28:29;;;;;;;5.43;4.47;;;20.70;99.90;;;;;;5051611;28;20233;-74
2022/06/28 05:30:55;;;;;;;4.25;3.85;;;20.60;99.90;;;;;;5052201;28;20176;-74
2022/06/28 05:33:21;;;;;;;5.75;5.25;;;20.60;99.90;;;;;;5034719;28;20841;-73
2022/06/28 05:35:46;;;;;;;5.97;5.38;;;20.50;99.90;;;;;;5051757;28;20288;-74
2022/06/28 05:38:12;;;;;;;7.57;5.50;;;20.40;99.90;;;;;;5033804;28;20289;-75
2022/06/28 05:40:37;;;;;;;7.13;5.32;;;20.30;99.90;;;;;;5051912;28;20207;-75
2022/06/28 05:43:03;;;;;;;6.30;5.70;;;20.20;99.90;;;;;;5051894;28;20172;-73
2022/06/28 05:45:29;;;;;;;5.38;4.88;;;20.30;99.90;;;;;;5052216;28;20204;-74
2022/06/28 05:47:54;;;;;;;7.03;6.20;;;20.10;99.90;;;;;;5051713;28;20211;-74
2022/06/28 05:50:20;;;;;;;6.57;5.57;;;20.10;99.90;;;;;;5050400;28;20242;-74
2022/06/28 05:52:47;;;;;;;4.63;4.22;;;20.10;99.90;;;;;;5033544;28;20582;-74
2022/06/28 05:55:13;;;;;;;4.82;4.43;;;20.00;99.90;;;;;;5033815;28;20220;-74
2022/06/28 05:57:38;;;;;;;5.15;4.07;;;20.20;99.90;;;;;;5034047;28;20207;-74
2022/06/28 06:00:05;;;;;;;4.80;4.30;;;20.20;99.90;;;;;;5051229;28;20260;-73
2022/06/28 06:02:31;;;;;;;4.60;4.20;;;20.10;99.90;;;;;;5050984;28;20204;-73
2022/06/28 06:04:59;;;;;;;4.75;4.25;;;20.00;99.90;;;;;;5067865;23;20254;-75
2022/06/28 06:07:25;;;;;;;6.22;4.90;;;20.20;99.90;;;;;;5031437;28;20287;-75
2022/06/28 06:09:50;;;;;;;4.70;4.20;;;20.40;99.90;;;;;;5031257;28;20677;-75
2022/06/28 06:12:16;;;;;;;6.68;4.10;;;20.50;99.90;;;;;;5031815;28;20212;-75
2022/06/28 06:14:42;;;;;;;5.40;4.13;;;20.70;99.90;;;;;;5033099;28;20224;-75
2022/06/28 06:17:08;;;;;;;7.28;4.53;;;20.90;99.90;;;;;;5033290;28;20247;-74
2022/06/28 06:19:33;;;;;;;5.45;4.53;;;20.90;99.90;;;;;;5031736;28;20338;-75
2022/06/28 06:21:59;;;;;;;5.60;4.68;;;20.80;99.90;;;;;;5032385;28;20192;-76
2022/06/28 06:24:25;;;;;;;7.47;4.00;;;20.70;99.90;;;;;;5033088;28;20184;-75
2022/06/28 06:26:50;;;;;;;5.25;4.55;;;20.80;99.90;;;;;;5030998;28;20211;-75
2022/06/28 06:29:16;;;;;;;4.85;4.38;;;21.00;99.90;;;;;;5033038;28;20205;-76
2022/06/28 06:31:41;;;;;;;5.25;4.00;;;21.20;99.90;;;;;;5031936;28;20574;-75
2022/06/28 06:34:07;;;;;;;6.07;4.90;;;21.60;99.90;;;;;;5030653;28;20259;-75
2022/06/28 06:36:33;;;;;;;4.30;3.28;;;22.10;99.90;;;;;;5032005;28;20310;-75
2022/06/28 06:38:58;;;;;;;3.78;3.40;;;22.10;99.90;;;;;;5030055;28;20204;-75
2022/06/28 06:41:24;;;;;;;3.70;3.30;;;22.10;99.90;;;;;;5030100;28;20211;-75
2022/06/28 06:43:49;;;;;;;3.65;3.33;;;22.20;99.90;;;;;;5030310;28;20206;-75
2022/06/28 06:46:15;;;;;;;4.38;3.40;;;22.10;99.90;;;;;;5031354;28;20621;-75
2022/06/28 06:48:40;;;;;;;4.40;4.00;;;22.70;99.90;;;;;;5031621;28;20187;-75
2022/06/28 06:51:06;;;;;;;5.35;3.20;;;24.10;99.90;;;;;;5031594;28;20703;-75
2022/06/28 06:53:32;;;;;;;3.60;2.33;;;25.50;99.90;;;;;;5031308;28;20808;-75
2022/06/28 06:55:57;;;;;;;2.60;2.10;;;27.20;99.90;;;;;;5030071;28;20212;-75
2022/06/28 06:58:24;;;;;;;2.38;1.90;;;28.70;99.90;;;;;;5030937;28;20204;-76
2022/06/28 07:00:49;;;;;;;2.90;2.35;;;29.50;99.90;;;;;;5031367;28;20263;-76
2022/06/28 07:03:15;;;;;;;3.50;2.13;;;28.40;99.90;;;;;;5032392;28;20227;-76
2022/06/28 07:05:41;;;;;;;2.38;2.17;;;27.60;99.90;;;;;;5030908;28;20925;-76
2022/06/28 07:08:06;;;;;;;2.80;2.45;;;26.80;99.90;;;;;;5031650;28;20291;-75
2022/06/28 07:10:32;;;;;;;4.15;3.60;;;26.30;99.90;;;;;;5029903;28;20705;-76
2022/06/28 07:12:58;;;;;;;3.13;2.60;;;25.30;99.90;;;;;;5031210;28;20255;-76
2022/06/28 07:15:24;;;;;;;2.90;2.53;;;24.80;99.90;;;;;;5030035;28;20196;-75
2022/06/28 07:17:49;;;;;;;2.75;2.53;;;24.90;99.90;;;;;;5030981;28;20216;-75
2022/06/28 07:20:15;;;;;;;4.10;2.72;;;25.50;99.90;;;;;;5030933;28;20354;-75
2022/06/28 07:22:40;;;;;;;5.07;2.65;;;26.30;99.90;;;;;;5029623;28;20223;-75
2022/06/28 07:25:06;;;;;;;2.72;2.20;;;27.10;99.90;;;;;;5029734;28;20642;-75
2022/06/28 07:27:32;;;;;;;2.47;2.00;;;27.70;99.90;;;;;;5032134;28;20187;-75
2022/06/28 07:29:57;;;;;;;4.10;2.42;;;26.90;99.90;;;;;;5030468;28;20212;-75
2022/06/28 07:32:23;;;;;;;2.13;1.92;;;26.30;99.90;;;;;;5030304;28;20555;-75
2022/06/28 07:34:48;;;;;;;5.13;2.30;;;26.00;99.90;;;;;;5029084;28;20224;-76
2022/06/28 07:37:14;;;;;;;1.90;1.80;;;25.90;99.90;;;;;;5028928;28;20216;-75
2022/06/28 07:39:39;;;;;;;2.15;1.60;;;27.30;99.90;;;;;;5030879;28;20180;-76
2022/06/28 07:42:05;;;;;;;2.20;1.92;;;28.30;99.90;;;;;;5034169;28;20278;-76
2022/06/28 07:44:31;;;;;;;4.28;1.60;;;29.60;99.90;;;;;;5033848;28;20302;-75
2022/06/28 07:46:57;;;;;;;2.25;1.55;;;30.50;99.90;;;;;;5034180;28;20592;-74
2022/06/28 07:49:22;;;;;;;2.38;1.63;;;30.80;99.90;;;;;;5033811;28;20212;-74
2022/06/28 07:54:32;;;;;;;1.67;1.58;;;29.90;99.90;;;;;;5034244;28;20625;-75
2022/06/28 07:56:58;;;;;;;1.60;1.50;;;29.20;99.90;;;;;;5033827;28;20216;-74
2022/06/28 07:59:24;;;;;;;2.83;1.65;;;28.50;99.90;;;;;;5033558;28;20209;-74
2022/06/28 08:01:49;;;;;;;1.67;1.58;;;28.00;99.90;;;;;;5034226;28;20254;-75
2022/06/28 08:04:15;;;;;;;1.83;1.70;;;27.20;99.90;;;;;;5034106;28;20266;-74
2022/06/28 08:06:41;;;;;;;1.52;1.42;;;27.10;99.90;;;;;;5034585;28;20658;-75
2022/06/28 08:09:07;;;;;;;1.92;1.73;;;27.80;99.90;;;;;;5035104;28;20204;-76
2022/06/28 08:11:33;;;;;;;1.70;1.60;;;28.20;99.90;;;;;;5034450;28;20309;-75
2022/06/28 08:14:02;;;;;;;2.88;1.42;;;28.10;99.90;;;;;;5034470;28;20212;-75
2022/06/28 08:16:28;;;;;;;2.58;1.58;;;28.50;99.90;;;;;;5033369;28;20870;-75
2022/06/28 08:18:54;;;;;;;5.38;2.55;;;29.80;99.90;;;;;;5033528;28;20192;-76
2022/06/28 08:21:20;;;;;;;6.97;1.80;;;30.50;99.90;;;;;;5035085;28;20187;-75
2022/06/28 08:23:45;;;;;;;2.40;1.90;;;30.30;99.90;;;;;;5034751;28;20682;-75
2022/06/28 08:26:11;;;;;;;1.48;1.38;;;30.00;99.90;;;;;;5032800;28;20295;-76
2022/06/28 08:28:37;;;;;;;3.22;1.50;;;29.90;99.90;;;;;;5033778;28;20562;-75
2022/06/28 08:31:02;;;;;;;3.35;1.77;;;30.10;99.90;;;;;;5033696;28;20403;-75
2022/06/28 08:33:28;;;;;;;1.75;1.40;;;30.80;99.90;;;;;;5034986;28;20183;-77
2022/06/28 08:35:53;;;;;;;3.15;1.65;;;30.50;99.90;;;;;;5033763;28;20287;-75
2022/06/28 08:38:19;;;;;;;4.03;1.75;;;30.90;99.90;;;;;;5033612;28;20303;-74
2022/06/28 08:40:45;;;;;;;1.83;1.10;;;32.20;99.90;;;;;;5032415;28;20211;-74
2022/06/28 08:43:11;;;;;;;1.40;1.30;;;33.20;99.90;;;;;;5034107;28;20211;-74
2022/06/28 08:45:37;;;;;;;1.50;1.30;;;33.80;99.90;;;;;;5034503;28;20591;-75
2022/06/28 08:48:20;;;;;;;1.40;1.30;;;33.70;99.90;;;;;;5033304;28;20279;-74
2022/06/28 08:50:51;;;;;;;2.58;1.17;;;32.10;99.90;;;;;;5026805;28;20214;-75
2022/06/28 08:53:20;;;;;;;2.25;1.40;;;31.00;99.90;;;;;;5033764;28;20216;-75
2022/06/28 08:55:48;;;;;;;2.15;1.45;;;31.90;99.90;;;;;;5033418;28;20200;-75
2022/06/28 08:58:14;;;;;;;1.85;1.30;;;31.90;99.90;;;;;;5034056;28;20207;-74
2022/06/28 09:00:39;;;;;;;1.48;1.27;;;31.70;99.90;;;;;;5034877;28;20180;-74
2022/06/28 09:03:05;;;;;;;6.20;3.97;;;31.40;99.90;;;;;;5035243;28;20219;-75
2022/06/28 09:05:31;;;;;;;3.63;2.25;;;31.90;99.90;;;;;;5033795;28;20239;-75
2022/06/28 09:07:57;;;;;;;1.88;1.60;;;32.60;99.90;;;;;;5034024;28;20724;-74
2022/06/28 09:10:23;;;;;;;1.48;1.30;;;32.20;99.90;;;;;;5036117;28;20465;-75
2022/06/28 09:12:55;;;;;;;2.35;1.55;;;32.60;99.90;;;;;;5035175;28;20191;-74
2022/06/28 09:15:25;;;;;;;0.93;0.88;;;32.40;99.90;;;;;;5035504;28;20193;-75
2022/06/28 09:17:55;;;;;;;2.33;1.10;;;31.60;99.90;;;;;;5033838;28;20227;-75
2022/06/28 09:20:36;;;;;;;0.90;0.90;;;31.40;99.90;;;;;;5033764;28;20220;-76
2022/06/28 09:23:02;;;;;;;1.70;1.35;;;32.50;99.90;;;;;;5034280;28;20207;-76
2022/06/28 09:25:30;;;;;;;2.17;1.13;;;33.00;99.90;;;;;;5035373;28;20223;-75
2022/06/28 09:28:00;;;;;;;1.00;1.00;;;32.10;99.90;;;;;;5036267;28;20172;-75
2022/06/28 09:30:29;;;;;;;1.67;1.13;;;30.90;99.90;;;;;;5034655;28;20179;-75
2022/06/28 09:32:54;;;;;;;2.25;1.00;;;29.80;99.90;;;;;;5034674;28;20212;-76
2022/06/28 09:35:24;;;;;;;1.20;1.10;;;28.80;99.90;;;;;;5035442;28;20212;-75
2022/06/28 09:37:56;;;;;;;1.70;1.60;;;28.00;99.90;;;;;;5035366;28;20220;-76
2022/06/28 09:40:25;;;;;;;22.80;15.43;;;28.00;99.90;;;;;;5034348;28;20209;-76
2022/06/28 09:43:13;;;;;;;4.97;3.70;;;28.30;99.90;;;;;;5036266;28;20177;-76
2022/06/28 09:45:47;;;;;;;4.57;1.70;;;27.90;99.90;;;;;;5035723;28;20283;-75
2022/06/28 09:48:20;;;;;;;1.30;1.20;;;28.20;99.90;;;;;;5034552;28;20243;-75
2022/06/28 09:50:46;;;;;;;1.90;1.20;;;28.90;99.90;;;;;;5036065;28;20243;-76
2022/06/28 09:53:15;;;;;;;0.98;0.93;;;29.20;99.90;;;;;;5036099;28;20295;-75
2022/06/28 09:55:42;;;;;;;1.05;0.95;;;29.70;99.90;;;;;;5047061;28;20216;-76
2022/06/28 09:58:08;;;;;;;1.17;1.02;;;30.40;99.90;;;;;;5052527;28;20252;-75
2022/06/28 10:00:35;;;;;;;1.35;0.90;;;29.80;99.90;;;;;;5040394;28;20188;-75
2022/06/28 10:03:01;;;;;;;1.65;1.10;;;29.60;99.90;;;;;;5033009;28;20576;-75
2022/06/28 10:05:27;;;;;;;2.35;1.15;;;29.50;99.90;;;;;;5032488;28;20213;-75
2022/06/28 10:07:53;;;;;;;1.77;0.98;;;28.70;99.90;;;;;;5031859;28;20234;-75
2022/06/28 10:10:24;;;;;;;2.45;1.00;;;28.30;99.90;;;;;;5031367;28;20283;-76
2022/06/28 10:15:54;;;;;;;4.50;1.10;;;27.90;99.90;;;;;;5009604;28;20241;-75
2022/06/28 10:18:21;;;;;;;3.38;0.82;;;27.10;99.90;;;;;;5028696;28;20250;-75
2022/06/28 10:20:48;;;;;;;0.98;0.98;;;27.10;99.90;;;;;;5031237;28;20254;-75
2022/06/28 10:23:37;;;;;;;2.70;0.90;;;27.50;99.90;;;;;;5031386;28;20219;-75
2022/06/28 10:26:15;;;;;;;0.85;0.85;;;27.80;99.90;;;;;;5031392;28;20215;-75
2022/06/28 10:28:59;;;;;;;4.68;3.28;;;27.90;99.90;;;;;;5030870;28;20303;-75
2022/06/28 10:31:25;;;;;;;1.30;1.20;;;28.70;99.90;;;;;;5031295;28;20219;-75
2022/06/28 10:33:56;;;;;;;0.80;0.80;;;28.00;99.90;;;;;;5031623;28;20191;-75
2022/06/28 10:36:23;;;;;;;2.53;1.67;;;27.80;99.90;;;;;;5031394;28;20258;-75
2022/06/28 10:39:01;;;;;;;5.10;3.72;;;27.60;99.90;;;;;;5030895;28;20232;-75
2022/06/28 10:41:43;;;;;;;9.45;2.80;;;28.30;99.90;;;;;;5031018;28;20227;-75
2022/06/28 10:44:11;;;;;;;1.40;1.23;;;28.60;99.90;;;;;;5031401;28;20214;-75
2022/06/28 10:46:37;;;;;;;2.28;2.08;;;29.10;99.90;;;;;;5031169;28;20547;-75
2022/06/28 10:49:06;;;;;;;1.17;0.90;;;29.20;99.90;;;;;;5031072;28;20263;-75
2022/06/28 10:51:32;;;;;;;3.20;1.00;;;29.20;99.90;;;;;;5031336;28;20192;-75
2022/06/28 10:54:07;;;;;;;1.00;1.00;;;29.20;99.90;;;;;;5031014;28;20204;-75
2022/06/28 10:56:38;;;;;;;1.20;1.10;;;29.60;99.90;;;;;;5029509;28;20733;-75
2022/06/28 10:59:09;;;;;;;1.38;1.27;;;29.60;99.90;;;;;;5030999;28;20292;-76
2022/06/28 11:01:44;;;;;;;1.15;1.05;;;29.40;99.90;;;;;;5031018;28;20204;-76
2022/06/28 11:04:10;;;;;;;3.13;2.83;;;29.70;99.90;;;;;;5029543;28;20229;-75
2022/06/28 11:06:44;;;;;;;7.25;3.13;;;29.20;99.90;;;;;;5031048;28;20704;-75
2022/06/28 11:09:23;;;;;;;2.65;1.27;;;29.10;99.90;;;;;;5031172;28;20221;-75
2022/06/28 11:12:07;;;;;;;2.10;1.50;;;28.80;99.90;;;;;;5030938;28;20222;-75
2022/06/28 11:14:36;;;;;;;1.40;1.30;;;28.60;99.90;;;;;;5029974;28;20268;-75
2022/06/28 11:17:16;;;;;;;1.45;1.00;;;28.20;99.90;;;;;;5034880;28;20231;-75
2022/06/28 11:19:50;;;;;;;1.23;0.90;;;28.40;99.90;;;;;;5034756;28;20250;-75
2022/06/28 11:22:43;;;;;;;0.60;0.60;;;28.60;99.90;;;;;;5033454;28;20212;-76
2022/06/28 11:25:21;;;;;;;1.98;0.65;;;28.60;99.90;;;;;;5022002;28;20218;-76
2022/06/28 11:27:57;;;;;;;1.02;0.90;;;28.10;99.90;;;;;;5034633;28;20172;-75
2022/06/28 11:30:27;;;;;;;1.70;0.90;;;28.00;99.90;;;;;;5035048;28;20222;-75
2022/06/28 11:32:55;;;;;;;2.28;1.40;;;27.90;99.90;;;;;;5034801;28;20584;-76
2022/06/28 11:35:24;;;;;;;1.65;1.33;;;27.90;99.90;;;;;;5034487;28;20214;-76
2022/06/28 11:37:53;;;;;;;3.67;2.55;;;27.90;99.90;;;;;;5032788;28;20735;-75
2022/06/28 11:40:24;;;;;;;6.93;4.45;;;27.90;99.90;;;;;;5034523;28;20701;-76
2022/06/28 11:43:00;;;;;;;4.25;2.60;;;27.90;99.90;;;;;;5034807;28;20184;-76
2022/06/28 11:45:29;;;;;;;2.42;1.17;;;27.90;99.90;;;;;;5034767;28;20200;-76
2022/06/28 11:47:55;;;;;;;4.72;1.30;;;28.10;99.90;;;;;;5034273;28;20254;-76
2022/06/28 11:50:21;;;;;;;2.47;1.27;;;28.20;99.90;;;;;;5033896;28;20250;-76
2022/06/28 11:52:55;;;;;;;0.90;0.90;;;28.30;99.90;;;;;;5026480;28;20581;-75
2022/06/28 11:55:40;;;;;;;1.85;1.15;;;28.70;99.90;;;;;;5034257;28;20211;-75
2022/06/28 11:58:19;;;;;;;2.28;0.90;;;28.60;99.90;;;;;;5034035;28;20362;-76
2022/06/28 12:01:11;;;;;;;1.42;0.70;;;28.90;99.90;;;;;;5033807;28;20183;-76
2022/06/28 12:03:43;;;;;;;0.85;0.85;;;29.00;99.90;;;;;;5035068;28;20648;-75
2022/06/28 12:06:18;;;;;;;0.80;0.80;;;28.60;99.90;;;;;;5035040;23;20267;-70
2022/06/28 12:08:49;;;;;;;1.83;0.77;;;28.80;99.90;;;;;;5013157;28;20205;-70
2022/06/28 12:11:32;;;;;;;0.80;0.70;;;28.70;99.90;;;;;;5014161;28;20201;-71
2022/06/28 12:14:07;;;;;;;1.38;0.70;;;28.60;99.90;;;;;;5013974;28;20213;-71
2022/06/28 12:16:38;;;;;;;1.02;0.82;;;28.30;99.90;;;;;;4984690;28;20280;-71
2022/06/28 12:19:07;;;;;;;4.63;3.60;;;28.00;99.90;;;;;;4993774;28;20178;-71
2022/06/28 12:21:33;;;;;;;5.03;1.60;;;27.90;99.90;;;;;;4996413;28;20545;-70
2022/06/28 12:24:00;;;;;;;1.55;1.45;;;27.80;99.90;;;;;;4994173;28;20296;-70
2022/06/28 12:26:44;;;;;;;2.17;0.90;;;27.10;99.90;;;;;;4993957;28;20214;-70
2022/06/28 12:29:11;;;;;;;1.20;0.80;;;27.00;99.90;;;;;;4984324;28;20212;-70
2022/06/28 12:31:43;;;;;;;1.05;0.98;;;27.00;99.90;;;;;;4993783;28;20206;-70
2022/06/28 12:34:10;;;;;;;2.65;0.93;;;27.10;99.90;;;;;;4984471;28;20537;-70
2022/06/28 12:36:35;;;;;;;0.90;0.80;;;27.10;99.90;;;;;;4984608;28;20305;-70
2022/06/28 12:39:03;;;;;;;1.88;1.60;;;27.10;99.90;;;;;;4993748;28;20292;-71
2022/06/28 12:41:28;;;;;;;5.68;4.50;;;27.20;99.90;;;;;;4993901;28;20293;-70
2022/06/28 12:43:54;;;;;;;3.75;3.35;;;27.40;99.90;;;;;;4993970;28;20229;-71
2022/06/28 12:46:19;;;;;;;2.92;1.20;;;27.60;99.90;;;;;;4993590;28;20304;-71
2022/06/28 12:48:45;;;;;;;1.55;1.13;;;27.60;99.90;;;;;;4993889;28;20190;-71
2022/06/28 12:51:10;;;;;;;1.15;0.90;;;27.60;99.90;;;;;;4996458;28;20177;-72
2022/06/28 12:53:37;;;;;;;3.35;1.00;;;27.30;99.90;;;;;;4993640;28;20209;-71
2022/06/28 12:56:03;;;;;;;5.95;1.40;;;27.10;99.90;;;;;;4993514;28;20265;-72
2022/06/28 12:58:28;;;;;;;5.57;3.53;;;26.90;99.90;;;;;;4993249;28;20758;-72
2022/06/28 13:00:54;;;;;;;2.63;1.05;;;26.90;99.90;;;;;;4993535;28;20177;-72